Time;durP1;ratioP1;P1;durP2;ratioP2;P2;SDS_P1;SDS_P2;PMS_P1;PMS_P2;Temp;Humidity;BMP_temperature;BMP_pressure;BME280_temperature;BME280_humidity;BME280_pressure;Samples;Min_cycle;Max_cycle;Signal;HPM_P1;HPM_P2
2022/07/30 00:00:19;;;;;;;5.25;1.63;;;23.00;68.50;;;;;;6224901;28;20057;-77
2022/07/30 00:03:21;;;;;;;4.03;1.73;;;23.00;69.60;;;;;;6224504;28;20052;-77
2022/07/30 00:06:22;;;;;;;2.03;1.40;;;22.90;69.50;;;;;;6224987;28;20050;-77
2022/07/30 00:09:24;;;;;;;2.60;1.58;;;22.70;70.30;;;;;;6218889;28;20125;-77
2022/07/30 00:12:26;;;;;;;8.73;2.35;;;22.50;71.10;;;;;;6224600;28;20057;-77
2022/07/30 00:15:29;;;;;;;7.00;1.98;;;22.30;71.80;;;;;;6224386;28;20062;-76
2022/07/30 00:18:31;;;;;;;3.38;1.98;;;22.20;72.90;;;;;;6224766;28;20049;-77
2022/07/30 00:21:33;;;;;;;2.10;1.58;;;22.10;73.60;;;;;;6224205;28;20050;-77
2022/07/30 00:24:34;;;;;;;4.57;1.67;;;21.90;74.10;;;;;;6224056;28;20818;-77
2022/07/30 00:27:36;;;;;;;3.05;1.70;;;21.70;74.70;;;;;;6224046;28;20037;-77
2022/07/30 00:30:40;;;;;;;4.32;2.15;;;21.60;75.50;;;;;;6224928;28;20058;-77
2022/07/30 00:33:42;;;;;;;5.43;1.90;;;21.50;76.20;;;;;;6223990;28;20038;-77
2022/07/30 00:36:43;;;;;;;2.88;1.77;;;21.40;77.00;;;;;;6224305;28;20050;-77
2022/07/30 00:39:45;;;;;;;5.03;2.50;;;21.30;78.00;;;;;;6223899;28;20407;-77
2022/07/30 00:42:47;;;;;;;3.55;1.92;;;21.20;78.80;;;;;;6224451;28;20050;-77
2022/07/30 00:45:51;;;;;;;5.60;1.70;;;21.10;79.10;;;;;;6220678;28;20051;-77
2022/07/30 00:48:52;;;;;;;1.83;1.45;;;21.00;79.80;;;;;;6222770;28;20052;-77
2022/07/30 00:51:54;;;;;;;3.42;2.40;;;20.80;80.40;;;;;;6223775;28;20042;-78
2022/07/30 00:54:56;;;;;;;3.65;2.10;;;20.80;80.80;;;;;;6224309;28;20049;-77
2022/07/30 00:57:57;;;;;;;5.10;2.53;;;20.70;81.50;;;;;;6223754;28;20045;-77
2022/07/30 01:01:00;;;;;;;4.57;2.00;;;20.60;82.00;;;;;;6223468;28;20056;-77
2022/07/30 01:04:02;;;;;;;4.85;1.95;;;20.50;82.70;;;;;;6223245;28;20042;-78
2022/07/30 01:07:04;;;;;;;3.90;2.17;;;20.40;83.20;;;;;;6224002;28;20054;-77
2022/07/30 01:10:08;;;;;;;4.95;2.17;;;20.40;83.60;;;;;;6223613;28;20041;-77
2022/07/30 01:13:10;;;;;;;4.30;2.25;;;20.30;84.20;;;;;;6223071;28;20053;-77
2022/07/30 01:16:15;;;;;;;4.53;2.47;;;20.30;84.10;;;;;;6222932;28;20470;-77
2022/07/30 01:22:57;;;;;;;3.35;2.42;;;20.20;85.50;;;;;;6223202;28;20053;-77
2022/07/30 01:26:04;;;;;;;5.13;2.47;;;20.00;86.30;;;;;;6222878;28;20077;-77
2022/07/30 01:29:06;;;;;;;5.40;2.47;;;19.90;87.40;;;;;;6222887;28;20053;-77
2022/07/30 01:32:08;;;;;;;7.53;3.10;;;19.80;89.00;;;;;;6222726;28;20120;-77
2022/07/30 01:35:11;;;;;;;6.63;2.75;;;19.70;89.30;;;;;;6223334;28;20056;-77
2022/07/30 01:38:16;;;;;;;3.50;2.45;;;19.60;89.40;;;;;;6223288;28;20048;-77
2022/07/30 01:41:19;;;;;;;6.53;2.60;;;19.60;89.60;;;;;;6221939;28;20148;-77
2022/07/30 01:44:23;;;;;;;4.75;2.00;;;19.50;89.80;;;;;;6222894;28;20057;-77
2022/07/30 01:47:26;;;;;;;3.38;2.22;;;19.50;90.10;;;;;;6227452;28;20069;-78
2022/07/30 01:50:30;;;;;;;7.75;2.40;;;19.50;90.10;;;;;;6199100;28;20511;-78
2022/07/30 01:53:34;;;;;;;4.45;2.05;;;19.40;90.30;;;;;;6198115;28;20089;-77
2022/07/30 01:56:38;;;;;;;5.38;2.80;;;19.40;90.40;;;;;;6198093;28;20416;-77
2022/07/30 01:59:43;;;;;;;4.20;2.17;;;19.30;90.60;;;;;;6198679;28;20042;-77
2022/07/30 02:02:46;;;;;;;7.75;3.35;;;19.20;90.90;;;;;;6198914;28;20050;-77
2022/07/30 02:05:52;;;;;;;3.90;2.45;;;19.20;91.10;;;;;;6197991;28;20046;-77
2022/07/30 02:08:56;;;;;;;4.97;2.70;;;19.20;91.30;;;;;;6197856;28;20046;-77
2022/07/30 02:15:28;;;;;;;5.53;3.10;;;19.00;91.70;;;;;;6197954;28;20043;-77
2022/07/30 02:18:34;;;;;;;4.07;2.88;;;18.90;91.80;;;;;;6197974;28;20141;-77
2022/07/30 02:21:39;;;;;;;4.35;2.78;;;18.80;92.10;;;;;;6198150;28;20052;-78
2022/07/30 02:24:42;;;;;;;3.20;2.58;;;18.80;92.50;;;;;;6197267;28;20050;-77
2022/07/30 02:27:50;;;;;;;3.15;2.70;;;18.70;92.80;;;;;;6197648;28;20042;-77
2022/07/30 02:30:55;;;;;;;4.65;2.67;;;18.70;92.70;;;;;;6197865;28;20056;-77
2022/07/30 02:34:00;;;;;;;6.95;2.80;;;18.60;92.90;;;;;;6197262;28;20049;-77
2022/07/30 02:37:03;;;;;;;8.75;2.90;;;18.50;93.10;;;;;;6197322;28;20042;-77
2022/07/30 02:40:05;;;;;;;4.95;2.90;;;18.50;93.10;;;;;;6197550;28;20042;-77
2022/07/30 02:43:09;;;;;;;7.28;3.50;;;18.50;93.10;;;;;;6198153;28;20057;-76
2022/07/30 02:46:12;;;;;;;5.13;2.90;;;18.40;93.20;;;;;;6197397;28;20485;-77
2022/07/30 02:49:16;;;;;;;4.18;3.20;;;18.40;93.30;;;;;;6215714;28;20052;-77
2022/07/30 02:52:18;;;;;;;6.45;2.80;;;18.30;93.50;;;;;;6224292;28;20050;-76
2022/07/30 02:55:21;;;;;;;3.53;2.85;;;18.20;93.80;;;;;;6227067;28;20049;-77
2022/07/30 02:58:25;;;;;;;5.22;2.90;;;18.20;94.10;;;;;;6227026;28;20069;-76
2022/07/30 03:01:29;;;;;;;4.38;2.90;;;18.10;94.10;;;;;;6226378;28;20050;-77
2022/07/30 03:04:32;;;;;;;5.28;3.20;;;18.10;94.30;;;;;;6226400;28;20049;-77
2022/07/30 03:07:35;;;;;;;6.32;3.05;;;18.00;94.40;;;;;;6226036;28;20547;-77
2022/07/30 03:10:38;;;;;;;4.50;3.95;;;17.90;94.60;;;;;;6226192;28;20058;-77
2022/07/30 03:13:41;;;;;;;3.92;3.00;;;17.90;94.70;;;;;;6225888;28;20053;-77
2022/07/30 03:16:47;;;;;;;3.78;2.63;;;17.90;94.60;;;;;;6254921;23;20046;-80
2022/07/30 03:19:50;;;;;;;5.80;3.22;;;17.90;94.70;;;;;;6262389;28;20045;-80
2022/07/30 03:22:53;;;;;;;8.13;2.95;;;17.90;94.70;;;;;;6264070;28;20055;-80
2022/07/30 03:25:59;;;;;;;3.95;3.40;;;17.90;94.70;;;;;;6263936;28;20049;-79
2022/07/30 03:29:05;;;;;;;9.82;3.03;;;17.80;94.60;;;;;;6267509;28;20508;-79
2022/07/30 03:32:09;;;;;;;13.07;3.25;;;17.80;94.70;;;;;;6259408;28;20049;-78
2022/07/30 03:35:11;;;;;;;8.20;4.28;;;17.80;94.80;;;;;;6258363;28;20383;-79
2022/07/30 03:38:14;;;;;;;3.42;2.92;;;17.80;94.60;;;;;;6257625;28;20054;-78
2022/07/30 03:41:17;;;;;;;4.20;3.65;;;17.80;94.60;;;;;;6256600;28;20691;-78
2022/07/30 03:44:21;;;;;;;7.53;3.05;;;17.80;94.60;;;;;;6256796;28;20041;-79
2022/07/30 03:47:23;;;;;;;4.82;3.33;;;17.80;94.60;;;;;;6256548;28;20092;-78
2022/07/30 03:50:25;;;;;;;4.53;2.85;;;17.80;94.50;;;;;;6256082;28;20053;-79
2022/07/30 03:53:27;;;;;;;6.03;3.20;;;17.80;94.40;;;;;;6256406;28;20502;-79
2022/07/30 03:56:29;;;;;;;4.03;2.63;;;17.80;94.40;;;;;;6257249;28;20041;-79
2022/07/30 03:59:33;;;;;;;3.25;2.80;;;17.80;94.30;;;;;;6256436;28;20410;-78
2022/07/30 04:02:41;;;;;;;5.53;2.97;;;17.90;94.30;;;;;;6257731;28;20049;-79
2022/07/30 04:05:43;;;;;;;;;;;17.90;94.20;;;;;;6256885;28;20045;-78
2022/07/30 04:08:44;;;;;;;7.13;3.88;;;18.00;94.30;;;;;;6256771;28;19928;-78
2022/07/30 04:11:46;;;;;;;5.32;2.92;;;18.00;94.10;;;;;;6255579;28;20521;-78
2022/07/30 04:14:49;;;;;;;3.53;2.63;;;18.10;94.00;;;;;;6256711;28;20075;-78
2022/07/30 04:17:57;;;;;;;3.80;2.20;;;18.20;94.00;;;;;;6256260;28;20045;-79
2022/07/30 04:20:59;;;;;;;;;;;18.30;93.90;;;;;;6258180;28;20045;-80
2022/07/30 04:24:01;;;;;;;4.63;3.03;;;18.30;93.80;;;;;;6251340;28;19921;-80
2022/07/30 04:27:04;;;;;;;6.90;4.18;;;18.40;93.60;;;;;;6251289;28;20108;-80
2022/07/30 04:30:08;;;;;;;4.85;2.67;;;18.50;93.50;;;;;;6250888;28;20053;-80
2022/07/30 04:33:10;;;;;;;5.43;3.10;;;18.60;93.30;;;;;;6250671;28;20053;-79
2022/07/30 04:36:12;;;;;;;3.58;2.63;;;18.70;93.10;;;;;;6250828;28;20042;-79
2022/07/30 04:39:13;;;;;;;4.45;2.58;;;18.80;92.90;;;;;;6250767;28;20049;-80
2022/07/30 04:42:15;;;;;;;3.28;2.40;;;19.00;92.70;;;;;;6250982;28;20049;-80
2022/07/30 04:45:19;;;;;;;7.45;2.60;;;19.00;92.50;;;;;;6250751;28;20053;-80
2022/07/30 04:48:20;;;;;;;8.25;2.80;;;19.10;92.30;;;;;;6250138;28;20080;-79
2022/07/30 04:51:26;;;;;;;8.25;3.00;;;19.20;92.20;;;;;;6249486;28;20053;-80
2022/07/30 04:54:35;;;;;;;6.10;2.80;;;19.40;92.10;;;;;;6251221;28;20052;-79
2022/07/30 04:57:40;;;;;;;4.55;2.92;;;19.60;91.80;;;;;;6250787;28;20041;-80
2022/07/30 05:00:44;;;;;;;4.63;2.55;;;19.70;91.50;;;;;;6250342;28;20045;-80
2022/07/30 05:03:46;;;;;;;10.85;2.67;;;19.90;91.20;;;;;;6249720;28;20523;-80
2022/07/30 05:06:49;;;;;;;2.83;2.50;;;20.10;90.90;;;;;;6250004;28;20068;-80
2022/07/30 05:09:51;;;;;;;5.95;2.78;;;20.30;90.50;;;;;;6249886;28;20045;-80
2022/07/30 05:12:53;;;;;;;5.25;2.45;;;20.40;90.10;;;;;;6250398;28;20054;-80
2022/07/30 05:15:56;;;;;;;5.97;2.30;;;20.60;89.50;;;;;;6250104;28;20425;-80
2022/07/30 05:18:57;;;;;;;5.93;2.95;;;20.90;88.70;;;;;;6250229;28;20056;-80
2022/07/30 05:21:59;;;;;;;4.30;2.67;;;21.10;87.80;;;;;;6250255;28;20053;-80
2022/07/30 05:25:01;;;;;;;6.50;2.60;;;21.70;86.10;;;;;;6249606;28;20518;-80
2022/07/30 05:28:03;;;;;;;4.65;2.30;;;22.50;83.20;;;;;;6250128;28;20041;-80
2022/07/30 05:31:06;;;;;;;6.15;2.45;;;23.20;80.60;;;;;;6251361;28;20060;-80
2022/07/30 05:34:08;;;;;;;4.68;2.20;;;23.90;77.80;;;;;;6249859;28;20048;-81
2022/07/30 05:37:09;;;;;;;5.35;2.08;;;24.30;75.40;;;;;;6250691;28;20049;-80
2022/07/30 05:40:12;;;;;;;6.05;1.85;;;24.90;73.10;;;;;;6249983;28;20046;-80
2022/07/30 05:43:14;;;;;;;6.40;2.25;;;25.60;69.90;;;;;;6249230;28;20060;-81
2022/07/30 05:46:17;;;;;;;5.03;1.95;;;26.40;66.70;;;;;;6249867;28;20049;-81
2022/07/30 05:49:19;;;;;;;6.53;2.33;;;27.20;63.70;;;;;;6249793;28;20052;-81
2022/07/30 05:52:21;;;;;;;3.28;1.95;;;28.40;60.00;;;;;;6244897;28;20049;-81
2022/07/30 05:55:22;;;;;;;3.08;1.85;;;29.90;55.50;;;;;;6248801;28;20045;-81
2022/07/30 05:58:24;;;;;;;9.07;2.17;;;31.20;51.70;;;;;;6250064;28;20513;-81
2022/07/30 06:01:27;;;;;;;4.85;1.85;;;32.40;48.20;;;;;;6249796;28;20042;-81
2022/07/30 06:04:29;;;;;;;3.55;1.92;;;33.30;45.80;;;;;;6249519;28;20049;-81
2022/07/30 06:07:31;;;;;;;4.63;2.13;;;34.00;44.20;;;;;;6249863;28;20045;-82
2022/07/30 06:10:33;;;;;;;4.97;2.00;;;34.40;42.90;;;;;;6250029;28;20045;-81
2022/07/30 06:13:34;;;;;;;5.55;1.35;;;35.00;41.50;;;;;;6249741;28;20127;-81
2022/07/30 06:16:37;;;;;;;6.80;1.77;;;35.70;40.30;;;;;;6250192;28;20041;-82
2022/07/30 06:19:39;;;;;;;4.13;2.25;;;36.30;39.20;;;;;;6250288;28;20053;-82
2022/07/30 06:22:41;;;;;;;2.20;1.55;;;36.70;38.00;;;;;;6250928;28;20064;-81
2022/07/30 06:25:43;;;;;;;6.15;1.75;;;37.00;37.80;;;;;;6250818;28;20415;-82
2022/07/30 06:28:45;;;;;;;6.40;1.98;;;37.20;37.30;;;;;;6258297;28;20053;-82
2022/07/30 06:31:48;;;;;;;5.72;3.55;;;37.30;37.00;;;;;;6258558;28;20049;-82
2022/07/30 06:34:49;;;;;;;3.00;1.45;;;37.40;36.70;;;;;;6258668;28;20055;-82
2022/07/30 06:37:51;;;;;;;2.05;1.23;;;38.00;36.00;;;;;;6260106;28;20419;-82
2022/07/30 06:40:53;;;;;;;6.30;1.65;;;38.20;35.40;;;;;;6257854;28;20053;-82
2022/07/30 06:43:54;;;;;;;3.58;1.50;;;38.40;35.70;;;;;;6258723;28;20037;-82
2022/07/30 06:46:57;;;;;;;5.10;1.40;;;38.60;34.40;;;;;;6258792;28;20049;-82
2022/07/30 06:50:01;;;;;;;7.95;1.50;;;38.60;34.50;;;;;;6258278;28;20059;-82
2022/07/30 06:53:03;;;;;;;5.68;1.30;;;38.90;33.90;;;;;;6253321;28;20041;-82
2022/07/30 06:56:05;;;;;;;9.73;2.20;;;39.00;33.50;;;;;;6258342;28;20041;-82
2022/07/30 06:59:06;;;;;;;6.82;1.52;;;39.20;33.30;;;;;;6258065;28;20053;-81
2022/07/30 07:02:10;;;;;;;2.80;1.50;;;38.90;33.90;;;;;;6255222;28;20057;-82
2022/07/30 07:05:11;;;;;;;4.50;1.48;;;38.40;33.90;;;;;;6257231;28;20172;-82
2022/07/30 07:08:13;;;;;;;3.60;1.40;;;37.20;35.30;;;;;;6260091;28;20049;-82
2022/07/30 07:11:15;;;;;;;1.63;1.42;;;36.20;36.10;;;;;;6267088;28;20045;-82
2022/07/30 07:14:17;;;;;;;4.70;2.10;;;34.60;38.00;;;;;;6284111;28;20490;-82
2022/07/30 07:17:20;;;;;;;4.38;1.60;;;33.20;39.60;;;;;;6283835;28;20040;-82
2022/07/30 07:20:22;;;;;;;2.08;1.48;;;31.90;41.20;;;;;;6282878;28;20051;-82
2022/07/30 07:23:24;;;;;;;5.78;1.55;;;31.20;42.90;;;;;;6282502;28;20056;-81
2022/07/30 07:26:26;;;;;;;2.90;1.75;;;30.60;43.90;;;;;;6282334;28;20474;-80
2022/07/30 07:29:27;;;;;;;4.38;1.88;;;30.30;44.50;;;;;;6283046;28;20051;-81
2022/07/30 07:32:30;;;;;;;4.50;1.63;;;30.10;45.30;;;;;;6281968;28;20052;-82
2022/07/30 07:35:33;;;;;;;2.80;1.77;;;30.00;45.80;;;;;;6273652;28;20075;-80
2022/07/30 07:38:35;;;;;;;2.60;1.60;;;30.00;45.70;;;;;;6287353;28;20045;-79
2022/07/30 07:41:37;;;;;;;8.07;2.25;;;30.00;46.10;;;;;;6286403;28;20101;-80
2022/07/30 07:44:38;;;;;;;3.55;1.30;;;29.80;46.30;;;;;;6285853;28;20060;-79
2022/07/30 07:47:45;;;;;;;5.60;2.13;;;29.70;46.20;;;;;;6284399;28;20049;-80
2022/07/30 07:50:47;;;;;;;3.33;1.60;;;29.60;46.80;;;;;;6285761;28;20052;-81
2022/07/30 07:53:49;;;;;;;2.22;1.38;;;29.70;46.70;;;;;;6267804;28;20553;-82
2022/07/30 07:56:51;;;;;;;4.03;1.15;;;29.90;46.50;;;;;;6261000;28;20573;-81
2022/07/30 07:59:54;;;;;;;5.72;1.40;;;30.00;46.30;;;;;;6258247;28;20197;-80
2022/07/30 08:02:57;;;;;;;6.40;1.60;;;30.00;45.80;;;;;;6255643;28;20050;-82
2022/07/30 08:06:00;;;;;;;2.95;1.30;;;30.10;46.10;;;;;;6274845;28;20045;-80
2022/07/30 08:09:02;;;;;;;3.58;1.30;;;30.20;45.90;;;;;;6285930;28;20049;-80
2022/07/30 08:12:04;;;;;;;4.88;1.63;;;30.40;46.10;;;;;;6284583;28;20043;-80
2022/07/30 08:15:08;;;;;;;1.83;1.17;;;30.40;45.70;;;;;;6286280;28;20045;-81
2022/07/30 08:18:11;;;;;;;3.03;1.40;;;30.40;45.80;;;;;;6287343;28;20045;-80
2022/07/30 08:21:14;;;;;;;2.45;1.15;;;30.40;46.30;;;;;;6284966;28;20049;-80
2022/07/30 08:24:16;;;;;;;9.73;1.35;;;30.50;45.60;;;;;;6285232;28;20048;-81
2022/07/30 08:27:18;;;;;;;7.07;1.73;;;30.70;45.30;;;;;;6285889;28;20067;-80
2022/07/30 08:30:20;;;;;;;4.35;1.40;;;30.90;45.20;;;;;;6287799;28;20072;-80
2022/07/30 08:33:23;;;;;;;5.57;1.67;;;31.10;44.60;;;;;;6274731;28;20053;-79
2022/07/30 08:36:25;;;;;;;4.88;1.52;;;31.00;44.50;;;;;;6259554;28;20052;-79
2022/07/30 08:39:26;;;;;;;4.82;1.80;;;30.90;44.00;;;;;;6262559;28;20052;-80
2022/07/30 08:42:29;;;;;;;6.53;1.48;;;30.60;44.20;;;;;;6262259;28;20053;-80
2022/07/30 08:45:31;;;;;;;4.28;2.00;;;30.60;44.10;;;;;;6259850;28;20452;-81
2022/07/30 08:48:36;;;;;;;2.92;1.20;;;30.50;44.30;;;;;;6261667;28;20046;-81
2022/07/30 08:51:38;;;;;;;4.78;1.42;;;30.70;44.50;;;;;;6260131;28;20045;-80
2022/07/30 08:54:40;;;;;;;4.13;1.35;;;30.90;44.20;;;;;;6259796;28;20119;-81
2022/07/30 08:57:43;;;;;;;4.35;1.30;;;31.20;43.90;;;;;;6260645;28;20045;-81
2022/07/30 09:00:44;;;;;;;6.40;1.40;;;31.40;43.20;;;;;;6259527;28;20056;-80
2022/07/30 09:03:47;;;;;;;9.27;1.02;;;31.40;42.10;;;;;;6267835;28;20041;-79
2022/07/30 09:06:49;;;;;;;6.78;1.30;;;31.40;41.20;;;;;;6269976;28;20048;-81
2022/07/30 09:09:51;;;;;;;3.97;1.00;;;31.50;41.10;;;;;;6284530;28;20049;-81
2022/07/30 09:12:53;;;;;;;2.70;0.93;;;31.70;40.20;;;;;;6284340;28;20055;-80
2022/07/30 09:15:55;;;;;;;6.60;1.30;;;31.70;39.40;;;;;;6286089;28;20041;-80
2022/07/30 09:19:12;;;;;;;3.20;0.93;;;31.60;40.00;;;;;;6269348;22;20056;-77
2022/07/30 09:22:13;;;;;;;1.92;1.30;;;31.70;40.70;;;;;;6249213;28;20517;-76
2022/07/30 09:25:15;;;;;;;3.80;1.08;;;31.70;41.10;;;;;;6248514;28;20525;-78
2022/07/30 09:28:28;;;;;;;5.65;1.23;;;31.50;41.50;;;;;;6248161;28;20046;-76
2022/07/30 09:31:30;;;;;;;4.40;1.58;;;31.70;40.90;;;;;;6246625;28;20051;-76
2022/07/30 09:34:34;;;;;;;13.90;1.08;;;31.50;40.30;;;;;;6248176;28;20087;-79
2022/07/30 09:37:36;;;;;;;3.42;1.20;;;31.70;39.70;;;;;;6248120;28;20049;-79
2022/07/30 09:40:38;;;;;;;2.78;1.20;;;31.90;39.50;;;;;;6248453;28;20052;-77
2022/07/30 09:43:48;;;;;;;6.22;1.13;;;32.10;39.80;;;;;;6247410;28;20053;-79
2022/07/30 09:46:50;;;;;;;2.42;1.10;;;31.80;39.40;;;;;;6249169;28;20053;-79
2022/07/30 09:50:03;;;;;;;4.70;1.25;;;31.90;39.30;;;;;;6247650;28;20056;-77
2022/07/30 09:53:09;;;;;;;3.05;1.20;;;32.20;39.30;;;;;;6247220;28;20060;-76
2022/07/30 09:56:25;;;;;;;4.03;1.15;;;32.30;38.90;;;;;;6246715;28;20525;-78
2022/07/30 09:59:28;;;;;;;3.95;0.95;;;32.30;38.10;;;;;;6247488;28;20046;-77
2022/07/30 10:02:31;;;;;;;2.28;0.80;;;32.30;38.40;;;;;;6246595;28;20056;-78
2022/07/30 10:05:34;;;;;;;4.63;0.82;;;32.50;38.10;;;;;;6244363;28;20038;-79
2022/07/30 10:08:41;;;;;;;5.20;1.08;;;32.50;38.30;;;;;;6246717;28;20403;-78
2022/07/30 10:11:43;;;;;;;3.20;1.00;;;32.40;38.70;;;;;;6247608;28;20041;-79
2022/07/30 10:14:47;;;;;;;2.60;0.88;;;33.20;38.00;;;;;;6247658;28;20053;-81
2022/07/30 10:17:49;;;;;;;2.38;0.57;;;33.90;37.10;;;;;;6256422;28;20051;-79
2022/07/30 10:20:52;;;;;;;2.35;0.77;;;34.10;36.80;;;;;;6262442;28;20057;-78
2022/07/30 10:23:54;;;;;;;2.05;0.95;;;34.00;36.50;;;;;;6248874;28;20050;-80
2022/07/30 10:26:56;;;;;;;4.25;1.48;;;33.70;37.00;;;;;;6249412;28;20049;-80
2022/07/30 10:29:59;;;;;;;6.43;1.02;;;33.40;36.80;;;;;;6248183;28;20056;-78
2022/07/30 10:33:02;;;;;;;5.13;0.75;;;33.30;36.90;;;;;;6246762;28;20045;-78
2022/07/30 10:36:05;;;;;;;4.25;1.42;;;32.80;37.60;;;;;;6247475;28;20067;-81
2022/07/30 10:39:10;;;;;;;3.45;1.17;;;32.90;38.20;;;;;;6248410;28;20054;-77
2022/07/30 10:42:27;;;;;;;4.45;1.00;;;33.10;37.20;;;;;;6247852;28;20064;-80
2022/07/30 10:45:42;;;;;;;1.35;0.80;;;33.50;36.50;;;;;;6247014;28;20049;-80
2022/07/30 10:48:43;;;;;;;5.50;0.80;;;33.60;35.90;;;;;;6247386;28;20111;-78
2022/07/30 10:51:48;;;;;;;1.67;0.52;;;33.70;35.20;;;;;;6248075;28;20049;-78
2022/07/30 10:54:53;;;;;;;4.60;0.90;;;33.70;35.50;;;;;;6248313;28;20479;-81
2022/07/30 10:58:03;;;;;;;4.88;1.10;;;34.00;35.90;;;;;;6241125;28;20050;-79
2022/07/30 11:01:05;;;;;;;3.25;0.80;;;34.10;34.70;;;;;;6247971;28;20053;-79
2022/07/30 11:04:22;;;;;;;3.30;1.02;;;34.10;34.70;;;;;;6247458;28;20049;-80
2022/07/30 11:07:30;;;;;;;3.58;0.90;;;34.20;34.90;;;;;;6247325;28;20099;-79
2022/07/30 11:10:37;;;;;;;2.08;0.90;;;34.50;34.20;;;;;;6249089;28;20058;-79
2022/07/30 11:13:53;;;;;;;1.25;0.50;;;34.70;33.70;;;;;;6249331;28;20045;-77
2022/07/30 11:16:59;;;;;;;1.77;0.73;;;34.90;33.20;;;;;;6251591;28;20049;-79
2022/07/30 11:20:11;;;;;;;4.68;0.80;;;35.00;33.40;;;;;;6251633;28;20053;-80
2022/07/30 11:23:37;;;;;;;4.13;0.50;;;35.20;33.30;;;;;;6251504;28;20882;-79
2022/07/30 11:26:51;;;;;;;1.75;0.80;;;35.60;32.90;;;;;;6226796;28;20510;-79
2022/07/30 11:29:53;;;;;;;3.45;1.17;;;35.90;32.50;;;;;;6226871;28;20049;-78
2022/07/30 11:32:55;;;;;;;1.05;0.63;;;35.90;32.40;;;;;;6227801;28;20046;-80
2022/07/30 11:36:11;;;;;;;2.40;0.60;;;35.80;32.50;;;;;;6252087;28;20123;-80
2022/07/30 11:39:14;;;;;;;1.65;0.30;;;35.90;32.30;;;;;;6253717;28;20175;-77
2022/07/30 11:42:24;;;;;;;1.65;0.63;;;35.80;32.30;;;;;;6254299;28;20049;-77
2022/07/30 11:45:28;;;;;;;4.40;0.65;;;36.20;32.40;;;;;;6252324;28;20125;-79
2022/07/30 11:48:30;;;;;;;2.78;0.50;;;36.60;31.70;;;;;;6251350;28;20085;-77
2022/07/30 11:51:40;;;;;;;4.85;0.90;;;36.50;31.50;;;;;;6251309;28;20057;-78
2022/07/30 11:54:54;;;;;;;2.20;0.70;;;36.20;31.80;;;;;;6251140;28;20056;-76
2022/07/30 11:57:57;;;;;;;0.75;0.35;;;36.00;32.20;;;;;;6248750;28;20088;-78
2022/07/30 12:01:00;;;;;;;5.20;1.17;;;36.20;31.90;;;;;;6250222;28;20056;-80
2022/07/30 12:04:04;;;;;;;2.45;0.60;;;36.60;31.70;;;;;;6249816;28;20052;-77
2022/07/30 12:07:05;;;;;;;2.30;0.40;;;36.80;31.50;;;;;;6250471;28;20045;-77
2022/07/30 12:10:19;;;;;;;1.95;0.50;;;36.90;31.20;;;;;;6249680;28;20678;-77
2022/07/30 12:13:21;;;;;;;4.40;0.50;;;36.80;30.50;;;;;;6249223;28;20435;-77
2022/07/30 12:16:23;;;;;;;4.18;0.65;;;36.80;30.60;;;;;;6249176;28;20049;-77
2022/07/30 12:19:24;;;;;;;3.53;0.43;;;36.90;30.80;;;;;;6249396;28;20045;-77
2022/07/30 12:22:26;;;;;;;2.33;0.50;;;37.10;30.70;;;;;;6249450;28;20053;-76
2022/07/30 12:25:29;;;;;;;3.20;0.93;;;37.60;30.40;;;;;;6248326;28;20045;-77
2022/07/30 12:28:33;;;;;;;3.90;0.63;;;37.90;30.00;;;;;;6248815;28;20060;-77
2022/07/30 12:31:36;;;;;;;3.05;0.30;;;38.00;29.90;;;;;;6249213;28;20048;-77
2022/07/30 12:34:37;;;;;;;1.20;0.40;;;37.90;29.60;;;;;;6249467;28;20128;-76
2022/07/30 12:37:39;;;;;;;2.47;0.40;;;37.60;30.00;;;;;;6248773;28;20052;-77
2022/07/30 12:40:53;;;;;;;2.63;0.65;;;37.70;30.00;;;;;;6248889;28;20041;-77
2022/07/30 12:43:56;;;;;;;3.22;0.40;;;37.80;29.80;;;;;;6248782;28;20037;-76
2022/07/30 12:46:57;;;;;;;1.38;0.32;;;37.70;29.50;;;;;;6248891;28;20499;-76
2022/07/30 12:50:01;;;;;;;5.07;0.60;;;37.20;29.90;;;;;;6248228;28;20053;-77
2022/07/30 12:53:03;;;;;;;4.07;0.55;;;36.70;30.00;;;;;;6248101;28;20049;-79
2022/07/30 12:56:13;;;;;;;2.05;0.80;;;36.60;30.10;;;;;;6248384;28;20042;-78
2022/07/30 12:59:21;;;;;;;1.63;0.73;;;36.60;30.30;;;;;;6247303;28;20150;-78
2022/07/30 13:02:31;;;;;;;1.58;0.55;;;36.30;30.50;;;;;;6248690;28;20525;-77
2022/07/30 13:05:47;;;;;;;4.38;0.52;;;35.90;31.00;;;;;;6245456;28;20042;-79
2022/07/30 13:08:51;;;;;;;1.30;0.68;;;35.80;31.20;;;;;;6248051;28;20041;-77
2022/07/30 13:11:54;;;;;;;7.40;0.57;;;36.00;30.90;;;;;;6248623;28;20050;-78
2022/07/30 13:14:56;;;;;;;3.08;0.40;;;36.00;31.00;;;;;;6248295;28;20049;-79
2022/07/30 13:17:58;;;;;;;8.10;2.22;;;36.30;31.00;;;;;;6247707;28;20046;-78
2022/07/30 13:21:01;;;;;;;1.80;0.50;;;36.70;30.90;;;;;;6247917;28;20052;-79
2022/07/30 13:24:03;;;;;;;1.00;0.40;;;37.10;30.20;;;;;;6247590;28;20047;-78
2022/07/30 13:27:06;;;;;;;4.03;0.43;;;37.00;30.00;;;;;;6248401;28;20042;-78
2022/07/30 13:30:09;;;;;;;2.05;0.40;;;36.80;30.20;;;;;;6247495;28;20053;-77
2022/07/30 13:33:11;;;;;;;3.90;0.50;;;37.10;30.30;;;;;;6247194;28;20506;-77
2022/07/30 13:36:13;;;;;;;3.25;0.85;;;37.50;30.30;;;;;;6246539;28;20045;-76
2022/07/30 13:39:14;;;;;;;2.88;0.40;;;37.90;30.00;;;;;;6247504;28;20049;-78
2022/07/30 13:42:17;;;;;;;2.13;0.43;;;38.30;29.50;;;;;;6247749;28;20530;-77
2022/07/30 13:45:19;;;;;;;1.60;0.40;;;38.30;29.10;;;;;;6246878;28;20046;-75
2022/07/30 13:48:21;;;;;;;0.63;0.38;;;38.20;29.30;;;;;;6247195;28;20053;-79
2022/07/30 13:51:23;;;;;;;4.15;0.30;;;38.30;29.20;;;;;;6251340;28;20057;-77
2022/07/30 13:54:25;;;;;;;0.80;0.30;;;38.30;29.20;;;;;;6257312;28;20145;-78
2022/07/30 13:57:28;;;;;;;1.30;0.38;;;38.20;29.40;;;;;;6249781;28;20041;-79
2022/07/30 14:00:32;;;;;;;2.38;0.40;;;37.90;29.50;;;;;;6245795;28;20045;-79
2022/07/30 14:03:34;;;;;;;2.83;0.50;;;37.90;29.60;;;;;;6246947;28;20055;-77
2022/07/30 14:06:36;;;;;;;8.27;0.57;;;38.10;29.10;;;;;;6246987;28;20042;-77
2022/07/30 14:09:38;;;;;;;3.58;0.52;;;38.00;29.00;;;;;;6246715;28;20048;-79
2022/07/30 14:12:41;;;;;;;6.63;0.43;;;38.20;29.00;;;;;;6246612;28;20443;-79
2022/07/30 14:15:43;;;;;;;2.72;1.13;;;38.10;28.90;;;;;;6246419;28;20049;-77
2022/07/30 14:18:44;;;;;;;2.55;0.28;;;37.80;29.00;;;;;;6247314;28;20051;-77
2022/07/30 14:21:46;;;;;;;2.58;0.25;;;37.70;29.00;;;;;;6246530;28;20523;-78
2022/07/30 14:24:48;;;;;;;0.98;0.35;;;37.90;29.00;;;;;;6246189;28;20426;-78
2022/07/30 14:27:51;;;;;;;6.43;0.82;;;37.90;29.00;;;;;;6246854;28;20045;-76
2022/07/30 14:30:53;;;;;;;1.42;0.50;;;37.90;28.70;;;;;;6246983;28;20052;-77
2022/07/30 14:33:55;;;;;;;1.60;0.50;;;37.70;28.70;;;;;;6246225;28;20463;-79
2022/07/30 14:36:57;;;;;;;0.80;0.30;;;37.80;28.60;;;;;;6246302;28;20525;-77
2022/07/30 14:39:58;;;;;;;2.85;0.90;;;37.70;28.70;;;;;;6246609;28;20042;-79
2022/07/30 14:43:01;;;;;;;0.80;0.30;;;37.80;28.90;;;;;;6246937;28;20061;-76
2022/07/30 14:46:03;;;;;;;3.42;0.30;;;38.10;28.70;;;;;;6245928;28;20057;-78
2022/07/30 14:49:05;;;;;;;1.15;0.50;;;38.10;28.50;;;;;;6250281;28;20049;-78
2022/07/30 14:52:07;;;;;;;4.43;0.60;;;38.10;28.50;;;;;;6251255;28;20047;-77
2022/07/30 14:55:09;;;;;;;3.00;0.50;;;37.80;28.50;;;;;;6251910;28;20061;-76
2022/07/30 14:58:13;;;;;;;0.82;0.25;;;37.50;28.60;;;;;;6250987;28;20495;-78
2022/07/30 15:01:14;;;;;;;3.15;0.30;;;37.30;28.40;;;;;;6249648;28;20160;-77
2022/07/30 15:04:16;;;;;;;0.85;0.50;;;37.30;28.50;;;;;;6250736;28;20041;-78
2022/07/30 15:07:18;;;;;;;1.75;0.28;;;37.30;28.50;;;;;;6250466;28;20124;-75
2022/07/30 15:10:20;;;;;;;0.50;0.20;;;37.30;28.50;;;;;;6251050;28;20053;-77
2022/07/30 15:13:23;;;;;;;2.67;0.32;;;37.40;28.40;;;;;;6250242;28;20041;-77
2022/07/30 15:16:25;;;;;;;2.63;1.70;;;37.30;28.20;;;;;;6250580;28;20041;-77
2022/07/30 15:19:26;;;;;;;1.67;0.38;;;37.00;28.00;;;;;;6250323;28;20068;-77
2022/07/30 15:22:28;;;;;;;0.68;0.30;;;36.60;28.50;;;;;;6251091;28;20054;-78
2022/07/30 15:25:31;;;;;;;0.82;0.35;;;36.40;28.60;;;;;;6250096;28;20050;-77
2022/07/30 15:28:34;;;;;;;3.88;0.20;;;36.40;28.80;;;;;;6250305;28;20056;-78
2022/07/30 15:31:36;;;;;;;4.82;0.30;;;36.50;28.50;;;;;;6250022;28;20414;-76
2022/07/30 15:34:38;;;;;;;1.38;0.20;;;36.50;28.60;;;;;;6238961;28;20049;-76
2022/07/30 15:37:40;;;;;;;1.77;0.38;;;36.60;28.60;;;;;;6263665;28;20045;-77
2022/07/30 15:40:42;;;;;;;0.57;0.20;;;36.80;28.30;;;;;;6250155;28;20071;-77
2022/07/30 15:43:45;;;;;;;0.45;0.20;;;36.90;28.30;;;;;;6249818;28;20152;-77
2022/07/30 15:46:47;;;;;;;3.65;0.85;;;37.00;28.30;;;;;;6250583;28;20053;-78
2022/07/30 15:49:49;;;;;;;2.10;0.50;;;36.80;28.20;;;;;;6249864;28;20041;-77
2022/07/30 15:52:50;;;;;;;2.30;0.40;;;36.80;28.50;;;;;;6249675;28;20046;-77
2022/07/30 15:55:52;;;;;;;6.55;1.10;;;36.70;28.20;;;;;;6249692;28;20044;-77
2022/07/30 15:58:56;;;;;;;3.42;0.20;;;36.50;28.50;;;;;;6248933;28;20081;-76
2022/07/30 16:01:58;;;;;;;0.75;0.40;;;36.20;28.70;;;;;;6248924;28;20053;-78